sensor_id;sensor_type;location;lat;lon;timestamp;P1;durP1;ratioP1;P2;durP2;ratioP2
45842;SDS011;31563;51.744;8.252;2023-06-14T00:00:01;4.82;;;3.10;;
45842;SDS011;31563;51.744;8.252;2023-06-14T00:02:31;3.95;;;2.47;;
45842;SDS011;31563;51.744;8.252;2023-06-14T00:05:01;5.30;;;2.55;;
45842;SDS011;31563;51.744;8.252;2023-06-14T00:10:05;3.67;;;2.15;;
45842;SDS011;31563;51.744;8.252;2023-06-14T00:12:34;3.42;;;2.15;;
45842;SDS011;31563;51.744;8.252;2023-06-14T00:15:03;4.55;;;2.35;;
45842;SDS011;31563;51.744;8.252;2023-06-14T00:17:31;3.38;;;2.10;;
45842;SDS011;31563;51.744;8.252;2023-06-14T00:20:02;3.73;;;2.50;;
45842;SDS011;31563;51.744;8.252;2023-06-14T00:22:34;4.45;;;2.03;;
45842;SDS011;31563;51.744;8.252;2023-06-14T00:25:03;4.78;;;2.20;;
45842;SDS011;31563;51.744;8.252;2023-06-14T00:27:49;7.25;;;2.30;;
45842;SDS011;31563;51.744;8.252;2023-06-14T00:30:17;2.38;;;2.10;;
45842;SDS011;31563;51.744;8.252;2023-06-14T00:32:46;2.85;;;2.33;;
45842;SDS011;31563;51.744;8.252;2023-06-14T00:35:16;2.78;;;2.20;;
45842;SDS011;31563;51.744;8.252;2023-06-14T00:37:45;3.13;;;2.33;;
45842;SDS011;31563;51.744;8.252;2023-06-14T00:40:13;3.53;;;2.00;;
45842;SDS011;31563;51.744;8.252;2023-06-14T00:42:41;3.03;;;2.40;;
45842;SDS011;31563;51.744;8.252;2023-06-14T00:45:10;2.92;;;2.17;;
45842;SDS011;31563;51.744;8.252;2023-06-14T00:47:38;3.75;;;2.65;;
45842;SDS011;31563;51.744;8.252;2023-06-14T00:50:08;5.35;;;2.60;;
45842;SDS011;31563;51.744;8.252;2023-06-14T00:52:39;4.00;;;2.40;;
45842;SDS011;31563;51.744;8.252;2023-06-14T00:55:07;4.10;;;2.40;;
45842;SDS011;31563;51.744;8.252;2023-06-14T00:57:36;3.35;;;2.15;;
45842;SDS011;31563;51.744;8.252;2023-06-14T01:00:07;3.85;;;2.42;;
45842;SDS011;31563;51.744;8.252;2023-06-14T01:02:36;2.67;;;2.30;;
45842;SDS011;31563;51.744;8.252;2023-06-14T01:05:05;3.78;;;2.40;;
45842;SDS011;31563;51.744;8.252;2023-06-14T01:07:40;2.97;;;2.40;;
45842;SDS011;31563;51.744;8.252;2023-06-14T01:10:21;5.30;;;2.38;;
45842;SDS011;31563;51.744;8.252;2023-06-14T01:13:01;3.97;;;2.25;;
45842;SDS011;31563;51.744;8.252;2023-06-14T01:15:35;3.13;;;2.13;;
45842;SDS011;31563;51.744;8.252;2023-06-14T01:20:33;3.65;;;2.40;;
45842;SDS011;31563;51.744;8.252;2023-06-14T01:23:05;2.95;;;2.28;;
45842;SDS011;31563;51.744;8.252;2023-06-14T01:25:34;3.05;;;2.30;;
45842;SDS011;31563;51.744;8.252;2023-06-14T01:28:03;3.30;;;2.50;;
45842;SDS011;31563;51.744;8.252;2023-06-14T01:30:36;3.95;;;1.92;;
45842;SDS011;31563;51.744;8.252;2023-06-14T01:33:05;2.43;;;2.20;;
45842;SDS011;31563;51.744;8.252;2023-06-14T01:35:33;3.00;;;2.70;;
45842;SDS011;31563;51.744;8.252;2023-06-14T01:38:02;3.85;;;2.10;;
45842;SDS011;31563;51.744;8.252;2023-06-14T01:40:32;4.07;;;2.72;;
45842;SDS011;31563;51.744;8.252;2023-06-14T01:43:02;2.70;;;2.35;;
45842;SDS011;31563;51.744;8.252;2023-06-14T01:45:31;3.88;;;2.47;;
45842;SDS011;31563;51.744;8.252;2023-06-14T01:48:01;3.22;;;2.10;;
45842;SDS011;31563;51.744;8.252;2023-06-14T01:50:29;3.13;;;2.35;;
45842;SDS011;31563;51.744;8.252;2023-06-14T01:52:58;3.50;;;2.17;;
45842;SDS011;31563;51.744;8.252;2023-06-14T01:55:26;2.28;;;2.05;;
45842;SDS011;31563;51.744;8.252;2023-06-14T01:57:56;3.88;;;1.98;;
45842;SDS011;31563;51.744;8.252;2023-06-14T02:00:25;2.60;;;2.13;;
45842;SDS011;31563;51.744;8.252;2023-06-14T02:02:53;3.00;;;2.40;;
45842;SDS011;31563;51.744;8.252;2023-06-14T02:05:22;2.40;;;1.98;;
45842;SDS011;31563;51.744;8.252;2023-06-14T02:07:50;2.58;;;2.10;;
45842;SDS011;31563;51.744;8.252;2023-06-14T02:10:20;3.35;;;2.03;;
45842;SDS011;31563;51.744;8.252;2023-06-14T02:12:48;2.58;;;2.38;;
45842;SDS011;31563;51.744;8.252;2023-06-14T02:15:17;2.05;;;1.85;;
45842;SDS011;31563;51.744;8.252;2023-06-14T02:17:46;3.03;;;2.10;;
45842;SDS011;31563;51.744;8.252;2023-06-14T02:20:16;4.28;;;2.20;;
45842;SDS011;31563;51.744;8.252;2023-06-14T02:22:44;4.00;;;2.40;;
45842;SDS011;31563;51.744;8.252;2023-06-14T02:25:12;2.75;;;2.10;;
45842;SDS011;31563;51.744;8.252;2023-06-14T02:27:41;2.50;;;2.10;;
45842;SDS011;31563;51.744;8.252;2023-06-14T02:30:10;3.78;;;2.25;;
45842;SDS011;31563;51.744;8.252;2023-06-14T02:32:41;2.67;;;2.22;;
45842;SDS011;31563;51.744;8.252;2023-06-14T02:35:10;2.95;;;2.17;;
45842;SDS011;31563;51.744;8.252;2023-06-14T02:37:39;2.65;;;2.28;;
45842;SDS011;31563;51.744;8.252;2023-06-14T02:40:09;2.20;;;2.00;;
45842;SDS011;31563;51.744;8.252;2023-06-14T02:42:38;7.03;;;2.15;;
45842;SDS011;31563;51.744;8.252;2023-06-14T02:45:07;3.17;;;2.35;;
45842;SDS011;31563;51.744;8.252;2023-06-14T02:50:06;4.05;;;2.45;;
45842;SDS011;31563;51.744;8.252;2023-06-14T02:52:35;3.45;;;2.35;;
45842;SDS011;31563;51.744;8.252;2023-06-14T02:55:04;2.70;;;2.25;;
45842;SDS011;31563;51.744;8.252;2023-06-14T02:57:34;3.17;;;2.20;;
45842;SDS011;31563;51.744;8.252;2023-06-14T03:00:02;3.30;;;2.20;;
45842;SDS011;31563;51.744;8.252;2023-06-14T03:02:34;3.03;;;2.35;;
45842;SDS011;31563;51.744;8.252;2023-06-14T03:05:03;2.90;;;2.20;;
45842;SDS011;31563;51.744;8.252;2023-06-14T03:07:34;2.72;;;2.40;;
45842;SDS011;31563;51.744;8.252;2023-06-14T03:10:08;3.53;;;2.33;;
45842;SDS011;31563;51.744;8.252;2023-06-14T03:12:36;3.00;;;1.90;;
45842;SDS011;31563;51.744;8.252;2023-06-14T03:15:05;3.55;;;1.90;;
45842;SDS011;31563;51.744;8.252;2023-06-14T03:17:33;3.28;;;2.13;;
45842;SDS011;31563;51.744;8.252;2023-06-14T03:20:06;2.65;;;2.08;;
45842;SDS011;31563;51.744;8.252;2023-06-14T03:25:06;3.60;;;2.30;;
45842;SDS011;31563;51.744;8.252;2023-06-14T03:27:35;3.42;;;2.28;;
45842;SDS011;31563;51.744;8.252;2023-06-14T03:30:04;3.55;;;2.47;;
45842;SDS011;31563;51.744;8.252;2023-06-14T03:32:34;4.43;;;2.63;;
45842;SDS011;31563;51.744;8.252;2023-06-14T03:35:02;5.22;;;1.85;;
45842;SDS011;31563;51.744;8.252;2023-06-14T03:37:31;3.80;;;2.30;;
45842;SDS011;31563;51.744;8.252;2023-06-14T03:40:00;2.85;;;2.17;;
45842;SDS011;31563;51.744;8.252;2023-06-14T03:42:32;3.10;;;2.28;;
45842;SDS011;31563;51.744;8.252;2023-06-14T03:45:00;3.53;;;2.28;;
45842;SDS011;31563;51.744;8.252;2023-06-14T03:47:28;3.30;;;2.22;;
45842;SDS011;31563;51.744;8.252;2023-06-14T03:49:57;5.00;;;2.38;;
45842;SDS011;31563;51.744;8.252;2023-06-14T03:52:25;3.05;;;1.90;;
45842;SDS011;31563;51.744;8.252;2023-06-14T03:54:54;2.33;;;2.13;;
45842;SDS011;31563;51.744;8.252;2023-06-14T03:57:44;3.58;;;2.03;;
45842;SDS011;31563;51.744;8.252;2023-06-14T04:00:12;2.60;;;2.20;;
45842;SDS011;31563;51.744;8.252;2023-06-14T04:02:41;2.72;;;2.28;;
45842;SDS011;31563;51.744;8.252;2023-06-14T04:05:10;3.50;;;2.20;;
45842;SDS011;31563;51.744;8.252;2023-06-14T04:07:39;3.80;;;2.20;;
45842;SDS011;31563;51.744;8.252;2023-06-14T04:10:11;3.25;;;2.10;;
45842;SDS011;31563;51.744;8.252;2023-06-14T04:12:40;3.42;;;2.38;;
45842;SDS011;31563;51.744;8.252;2023-06-14T04:15:11;2.97;;;2.40;;
45842;SDS011;31563;51.744;8.252;2023-06-14T04:17:47;4.72;;;2.40;;
45842;SDS011;31563;51.744;8.252;2023-06-14T04:20:15;3.92;;;2.00;;
45842;SDS011;31563;51.744;8.252;2023-06-14T04:22:43;3.67;;;2.38;;
45842;SDS011;31563;51.744;8.252;2023-06-14T04:25:11;3.45;;;2.30;;
45842;SDS011;31563;51.744;8.252;2023-06-14T04:27:39;2.35;;;1.85;;
45842;SDS011;31563;51.744;8.252;2023-06-14T04:30:08;4.90;;;2.15;;
45842;SDS011;31563;51.744;8.252;2023-06-14T04:32:39;2.65;;;1.90;;
45842;SDS011;31563;51.744;8.252;2023-06-14T04:35:09;5.05;;;2.38;;
45842;SDS011;31563;51.744;8.252;2023-06-14T04:37:37;3.65;;;2.60;;
45842;SDS011;31563;51.744;8.252;2023-06-14T04:40:08;3.65;;;2.13;;
45842;SDS011;31563;51.744;8.252;2023-06-14T04:42:38;4.72;;;2.30;;
45842;SDS011;31563;51.744;8.252;2023-06-14T04:45:07;4.87;;;2.27;;
45842;SDS011;31563;51.744;8.252;2023-06-14T04:47:37;5.10;;;2.00;;
45842;SDS011;31563;51.744;8.252;2023-06-14T04:50:07;4.05;;;2.22;;
45842;SDS011;31563;51.744;8.252;2023-06-14T04:55:04;4.30;;;2.25;;
45842;SDS011;31563;51.744;8.252;2023-06-14T04:57:33;3.03;;;2.10;;
45842;SDS011;31563;51.744;8.252;2023-06-14T05:00:01;4.20;;;1.73;;
45842;SDS011;31563;51.744;8.252;2023-06-14T05:02:31;3.92;;;1.98;;
45842;SDS011;31563;51.744;8.252;2023-06-14T05:05:00;3.95;;;1.85;;
45842;SDS011;31563;51.744;8.252;2023-06-14T05:09:57;3.72;;;1.65;;
45842;SDS011;31563;51.744;8.252;2023-06-14T05:12:25;3.83;;;1.58;;
45842;SDS011;31563;51.744;8.252;2023-06-14T05:14:53;4.63;;;1.65;;
45842;SDS011;31563;51.744;8.252;2023-06-14T05:17:21;3.58;;;2.00;;
45842;SDS011;31563;51.744;8.252;2023-06-14T05:19:50;3.05;;;1.70;;
45842;SDS011;31563;51.744;8.252;2023-06-14T05:22:19;2.45;;;1.90;;
45842;SDS011;31563;51.744;8.252;2023-06-14T05:24:47;4.90;;;1.80;;
45842;SDS011;31563;51.744;8.252;2023-06-14T05:27:16;8.18;;;2.22;;
45842;SDS011;31563;51.744;8.252;2023-06-14T05:29:44;5.57;;;2.13;;
45842;SDS011;31563;51.744;8.252;2023-06-14T05:32:12;3.53;;;1.90;;
45842;SDS011;31563;51.744;8.252;2023-06-14T05:34:41;4.85;;;1.90;;
45842;SDS011;31563;51.744;8.252;2023-06-14T05:37:10;3.10;;;1.65;;
45842;SDS011;31563;51.744;8.252;2023-06-14T05:39:40;6.45;;;2.28;;
45842;SDS011;31563;51.744;8.252;2023-06-14T05:42:09;4.90;;;2.00;;
45842;SDS011;31563;51.744;8.252;2023-06-14T05:44:37;2.35;;;1.80;;
45842;SDS011;31563;51.744;8.252;2023-06-14T05:47:05;3.70;;;1.88;;
45842;SDS011;31563;51.744;8.252;2023-06-14T05:49:34;5.10;;;1.57;;
45842;SDS011;31563;51.744;8.252;2023-06-14T05:52:02;3.88;;;1.60;;
45842;SDS011;31563;51.744;8.252;2023-06-14T05:54:31;4.07;;;1.93;;
45842;SDS011;31563;51.744;8.252;2023-06-14T05:57:00;2.90;;;1.77;;
45842;SDS011;31563;51.744;8.252;2023-06-14T05:59:29;3.28;;;1.60;;
45842;SDS011;31563;51.744;8.252;2023-06-14T06:01:57;2.03;;;1.33;;
45842;SDS011;31563;51.744;8.252;2023-06-14T06:04:26;2.10;;;1.65;;
45842;SDS011;31563;51.744;8.252;2023-06-14T06:06:54;4.63;;;1.67;;
45842;SDS011;31563;51.744;8.252;2023-06-14T06:09:22;2.80;;;1.60;;
45842;SDS011;31563;51.744;8.252;2023-06-14T06:11:50;3.33;;;1.52;;
45842;SDS011;31563;51.744;8.252;2023-06-14T06:14:21;2.92;;;1.45;;
45842;SDS011;31563;51.744;8.252;2023-06-14T06:16:49;2.83;;;1.45;;
45842;SDS011;31563;51.744;8.252;2023-06-14T06:21:47;2.58;;;1.40;;
45842;SDS011;31563;51.744;8.252;2023-06-14T06:24:15;2.35;;;1.75;;
45842;SDS011;31563;51.744;8.252;2023-06-14T06:26:43;2.67;;;1.17;;
45842;SDS011;31563;51.744;8.252;2023-06-14T06:29:11;2.03;;;1.50;;
45842;SDS011;31563;51.744;8.252;2023-06-14T06:31:41;1.33;;;1.20;;
45842;SDS011;31563;51.744;8.252;2023-06-14T06:34:09;2.05;;;1.15;;
45842;SDS011;31563;51.744;8.252;2023-06-14T06:36:38;2.40;;;1.40;;
45842;SDS011;31563;51.744;8.252;2023-06-14T06:39:06;2.50;;;1.35;;
45842;SDS011;31563;51.744;8.252;2023-06-14T06:41:37;2.15;;;0.90;;
45842;SDS011;31563;51.744;8.252;2023-06-14T06:44:06;1.13;;;1.00;;
45842;SDS011;31563;51.744;8.252;2023-06-14T06:46:36;3.85;;;1.05;;
45842;SDS011;31563;51.744;8.252;2023-06-14T06:49:08;2.25;;;0.77;;
45842;SDS011;31563;51.744;8.252;2023-06-14T06:51:40;1.60;;;1.08;;
45842;SDS011;31563;51.744;8.252;2023-06-14T06:54:10;1.85;;;0.80;;
45842;SDS011;31563;51.744;8.252;2023-06-14T06:56:38;1.35;;;0.90;;
45842;SDS011;31563;51.744;8.252;2023-06-14T06:59:06;2.35;;;0.73;;
45842;SDS011;31563;51.744;8.252;2023-06-14T07:01:34;1.88;;;0.60;;
45842;SDS011;31563;51.744;8.252;2023-06-14T07:04:03;0.75;;;0.50;;
45842;SDS011;31563;51.744;8.252;2023-06-14T07:06:32;1.75;;;0.45;;
45842;SDS011;31563;51.744;8.252;2023-06-14T07:09:01;0.88;;;0.70;;
45842;SDS011;31563;51.744;8.252;2023-06-14T07:11:31;1.08;;;0.70;;
45842;SDS011;31563;51.744;8.252;2023-06-14T07:13:59;1.77;;;0.52;;
45842;SDS011;31563;51.744;8.252;2023-06-14T07:16:27;2.15;;;0.50;;
45842;SDS011;31563;51.744;8.252;2023-06-14T07:18:55;0.68;;;0.40;;
45842;SDS011;31563;51.744;8.252;2023-06-14T07:21:23;0.93;;;0.55;;
45842;SDS011;31563;51.744;8.252;2023-06-14T07:23:54;1.95;;;0.52;;
45842;SDS011;31563;51.744;8.252;2023-06-14T07:26:23;2.05;;;0.50;;
45842;SDS011;31563;51.744;8.252;2023-06-14T07:28:51;1.77;;;0.50;;
45842;SDS011;31563;51.744;8.252;2023-06-14T07:31:19;0.50;;;0.40;;
45842;SDS011;31563;51.744;8.252;2023-06-14T07:33:47;1.35;;;0.50;;
45842;SDS011;31563;51.744;8.252;2023-06-14T07:36:16;2.65;;;0.50;;
45842;SDS011;31563;51.744;8.252;2023-06-14T07:38:45;1.67;;;0.80;;
45842;SDS011;31563;51.744;8.252;2023-06-14T07:41:15;3.00;;;0.77;;
45842;SDS011;31563;51.744;8.252;2023-06-14T07:43:44;1.40;;;0.73;;
45842;SDS011;31563;51.744;8.252;2023-06-14T07:46:12;2.05;;;0.65;;
45842;SDS011;31563;51.744;8.252;2023-06-14T07:48:40;3.67;;;0.60;;
45842;SDS011;31563;51.744;8.252;2023-06-14T07:51:08;1.05;;;0.50;;
45842;SDS011;31563;51.744;8.252;2023-06-14T07:53:36;0.85;;;0.57;;
45842;SDS011;31563;51.744;8.252;2023-06-14T07:56:05;1.65;;;0.70;;
45842;SDS011;31563;51.744;8.252;2023-06-14T07:58:34;1.77;;;0.90;;
45842;SDS011;31563;51.744;8.252;2023-06-14T08:01:02;1.35;;;0.73;;
45842;SDS011;31563;51.744;8.252;2023-06-14T08:03:32;1.52;;;0.60;;
45842;SDS011;31563;51.744;8.252;2023-06-14T08:06:01;2.05;;;1.02;;
45842;SDS011;31563;51.744;8.252;2023-06-14T08:08:30;1.27;;;0.80;;
45842;SDS011;31563;51.744;8.252;2023-06-14T08:10:58;1.85;;;0.90;;
45842;SDS011;31563;51.744;8.252;2023-06-14T08:13:26;3.05;;;0.90;;
45842;SDS011;31563;51.744;8.252;2023-06-14T08:15:56;1.95;;;1.00;;
45842;SDS011;31563;51.744;8.252;2023-06-14T08:18:24;1.63;;;0.70;;
45842;SDS011;31563;51.744;8.252;2023-06-14T08:20:53;1.63;;;1.00;;
45842;SDS011;31563;51.744;8.252;2023-06-14T08:23:23;1.77;;;1.05;;
45842;SDS011;31563;51.744;8.252;2023-06-14T08:25:52;3.03;;;0.95;;
45842;SDS011;31563;51.744;8.252;2023-06-14T08:28:20;2.00;;;0.90;;
45842;SDS011;31563;51.744;8.252;2023-06-14T08:30:48;2.35;;;0.82;;
45842;SDS011;31563;51.744;8.252;2023-06-14T08:33:17;2.65;;;0.80;;
45842;SDS011;31563;51.744;8.252;2023-06-14T08:35:46;1.27;;;0.90;;
45842;SDS011;31563;51.744;8.252;2023-06-14T08:38:15;1.77;;;0.80;;
45842;SDS011;31563;51.744;8.252;2023-06-14T08:40:43;1.45;;;0.75;;
45842;SDS011;31563;51.744;8.252;2023-06-14T08:43:15;1.10;;;0.88;;
45842;SDS011;31563;51.744;8.252;2023-06-14T08:45:44;2.55;;;1.13;;
45842;SDS011;31563;51.744;8.252;2023-06-14T08:50:45;1.35;;;0.70;;
45842;SDS011;31563;51.744;8.252;2023-06-14T08:53:19;1.60;;;0.70;;
45842;SDS011;31563;51.744;8.252;2023-06-14T08:55:49;1.70;;;0.90;;
45842;SDS011;31563;51.744;8.252;2023-06-14T08:58:19;1.38;;;1.00;;
45842;SDS011;31563;51.744;8.252;2023-06-14T09:00:50;1.95;;;0.98;;
45842;SDS011;31563;51.744;8.252;2023-06-14T09:03:18;1.55;;;0.80;;
45842;SDS011;31563;51.744;8.252;2023-06-14T09:05:49;1.55;;;1.05;;
45842;SDS011;31563;51.744;8.252;2023-06-14T09:08:18;1.25;;;0.90;;
45842;SDS011;31563;51.744;8.252;2023-06-14T09:10:48;1.67;;;0.80;;
45842;SDS011;31563;51.744;8.252;2023-06-14T09:13:17;2.67;;;1.00;;
45842;SDS011;31563;51.744;8.252;2023-06-14T09:15:45;2.47;;;1.00;;
45842;SDS011;31563;51.744;8.252;2023-06-14T09:18:13;2.10;;;0.90;;
45842;SDS011;31563;51.744;8.252;2023-06-14T09:20:41;2.88;;;0.95;;
45842;SDS011;31563;51.744;8.252;2023-06-14T09:23:11;2.63;;;0.80;;
45842;SDS011;31563;51.744;8.252;2023-06-14T09:25:43;1.10;;;0.70;;
45842;SDS011;31563;51.744;8.252;2023-06-14T09:28:13;0.90;;;0.80;;
45842;SDS011;31563;51.744;8.252;2023-06-14T09:30:41;1.20;;;0.80;;
45842;SDS011;31563;51.744;8.252;2023-06-14T09:33:09;1.63;;;1.00;;
45842;SDS011;31563;51.744;8.252;2023-06-14T09:35:38;2.03;;;1.00;;
45842;SDS011;31563;51.744;8.252;2023-06-14T09:38:06;2.97;;;0.90;;
45842;SDS011;31563;51.744;8.252;2023-06-14T09:40:36;2.47;;;0.82;;
45842;SDS011;31563;51.744;8.252;2023-06-14T09:45:35;1.58;;;0.90;;
45842;SDS011;31563;51.744;8.252;2023-06-14T09:48:05;2.05;;;0.75;;
45842;SDS011;31563;51.744;8.252;2023-06-14T09:50:35;0.85;;;0.80;;
45842;SDS011;31563;51.744;8.252;2023-06-14T09:53:05;0.95;;;0.80;;
45842;SDS011;31563;51.744;8.252;2023-06-14T09:55:36;2.08;;;0.90;;
45842;SDS011;31563;51.744;8.252;2023-06-14T09:58:06;3.38;;;0.93;;
45842;SDS011;31563;51.744;8.252;2023-06-14T10:00:35;1.77;;;1.15;;
45842;SDS011;31563;51.744;8.252;2023-06-14T10:03:06;1.77;;;1.00;;
45842;SDS011;31563;51.744;8.252;2023-06-14T10:05:41;0.90;;;0.85;;
45842;SDS011;31563;51.744;8.252;2023-06-14T10:08:13;2.90;;;0.98;;
45842;SDS011;31563;51.744;8.252;2023-06-14T10:10:45;1.67;;;1.00;;
45842;SDS011;31563;51.744;8.252;2023-06-14T10:13:14;1.27;;;0.90;;
45842;SDS011;31563;51.744;8.252;2023-06-14T10:15:46;1.30;;;0.88;;
45842;SDS011;31563;51.744;8.252;2023-06-14T10:18:24;1.97;;;1.13;;
45842;SDS011;31563;51.744;8.252;2023-06-14T10:21:02;2.70;;;0.98;;
45842;SDS011;31563;51.744;8.252;2023-06-14T10:23:37;1.45;;;1.00;;
45842;SDS011;31563;51.744;8.252;2023-06-14T10:26:13;1.27;;;0.80;;
45842;SDS011;31563;51.744;8.252;2023-06-14T10:28:54;1.33;;;0.80;;
45842;SDS011;31563;51.744;8.252;2023-06-14T10:31:39;1.13;;;0.98;;
45842;SDS011;31563;51.744;8.252;2023-06-14T10:34:09;0.90;;;0.80;;
45842;SDS011;31563;51.744;8.252;2023-06-14T10:36:38;2.43;;;1.10;;
45842;SDS011;31563;51.744;8.252;2023-06-14T10:39:15;1.80;;;1.00;;
45842;SDS011;31563;51.744;8.252;2023-06-14T10:41:54;1.00;;;0.80;;
45842;SDS011;31563;51.744;8.252;2023-06-14T10:44:40;3.92;;;0.93;;
45842;SDS011;31563;51.744;8.252;2023-06-14T10:47:10;1.42;;;0.90;;
45842;SDS011;31563;51.744;8.252;2023-06-14T10:49:50;1.13;;;0.68;;
45842;SDS011;31563;51.744;8.252;2023-06-14T10:52:24;1.40;;;1.05;;
45842;SDS011;31563;51.744;8.252;2023-06-14T10:57:48;1.38;;;0.95;;
45842;SDS011;31563;51.744;8.252;2023-06-14T11:00:21;1.85;;;0.73;;
45842;SDS011;31563;51.744;8.252;2023-06-14T11:05:59;2.90;;;1.10;;
45842;SDS011;31563;51.744;8.252;2023-06-14T11:08:33;2.13;;;1.02;;
45842;SDS011;31563;51.744;8.252;2023-06-14T11:11:22;1.55;;;1.00;;
45842;SDS011;31563;51.744;8.252;2023-06-14T11:13:53;1.40;;;1.02;;
45842;SDS011;31563;51.744;8.252;2023-06-14T11:16:21;1.88;;;1.13;;
45842;SDS011;31563;51.744;8.252;2023-06-14T11:18:54;3.20;;;1.20;;
45842;SDS011;31563;51.744;8.252;2023-06-14T11:21:23;3.95;;;1.15;;
45842;SDS011;31563;51.744;8.252;2023-06-14T11:23:57;2.35;;;1.02;;
45842;SDS011;31563;51.744;8.252;2023-06-14T11:26:26;3.35;;;1.13;;
45842;SDS011;31563;51.744;8.252;2023-06-14T11:28:56;3.58;;;1.33;;
45842;SDS011;31563;51.744;8.252;2023-06-14T11:31:26;2.78;;;1.40;;
45842;SDS011;31563;51.744;8.252;2023-06-14T11:33:56;1.60;;;1.33;;
45842;SDS011;31563;51.744;8.252;2023-06-14T11:36:26;3.13;;;1.30;;
45842;SDS011;31563;51.744;8.252;2023-06-14T11:38:59;1.73;;;1.13;;
45842;SDS011;31563;51.744;8.252;2023-06-14T11:41:32;2.03;;;1.30;;
45842;SDS011;31563;51.744;8.252;2023-06-14T11:44:03;3.00;;;1.50;;
45842;SDS011;31563;51.744;8.252;2023-06-14T11:46:32;3.05;;;1.23;;
45842;SDS011;31563;51.744;8.252;2023-06-14T11:49:00;1.80;;;1.07;;
45842;SDS011;31563;51.744;8.252;2023-06-14T11:51:31;2.70;;;1.30;;
45842;SDS011;31563;51.744;8.252;2023-06-14T11:54:00;2.58;;;1.40;;
45842;SDS011;31563;51.744;8.252;2023-06-14T11:56:29;4.32;;;1.20;;
45842;SDS011;31563;51.744;8.252;2023-06-14T11:58:58;4.05;;;1.50;;
45842;SDS011;31563;51.744;8.252;2023-06-14T12:01:29;5.43;;;1.80;;
45842;SDS011;31563;51.744;8.252;2023-06-14T12:03:58;4.15;;;1.58;;
45842;SDS011;31563;51.744;8.252;2023-06-14T12:06:27;3.97;;;1.40;;
45842;SDS011;31563;51.744;8.252;2023-06-14T12:08:59;2.85;;;1.67;;
45842;SDS011;31563;51.744;8.252;2023-06-14T12:11:33;2.05;;;1.38;;
45842;SDS011;31563;51.744;8.252;2023-06-14T12:14:03;3.75;;;1.52;;
45842;SDS011;31563;51.744;8.252;2023-06-14T12:16:33;2.40;;;1.50;;
45842;SDS011;31563;51.744;8.252;2023-06-14T12:19:11;3.10;;;1.60;;
45842;SDS011;31563;51.744;8.252;2023-06-14T12:21:40;3.08;;;1.33;;
45842;SDS011;31563;51.744;8.252;2023-06-14T12:24:09;1.67;;;1.27;;
45842;SDS011;31563;51.744;8.252;2023-06-14T12:26:39;1.58;;;1.30;;
45842;SDS011;31563;51.744;8.252;2023-06-14T12:29:08;2.65;;;1.30;;
45842;SDS011;31563;51.744;8.252;2023-06-14T12:31:40;3.78;;;1.40;;
45842;SDS011;31563;51.744;8.252;2023-06-14T12:34:09;2.00;;;1.50;;
45842;SDS011;31563;51.744;8.252;2023-06-14T12:36:37;2.65;;;1.17;;
45842;SDS011;31563;51.744;8.252;2023-06-14T12:39:10;1.60;;;1.40;;
45842;SDS011;31563;51.744;8.252;2023-06-14T12:41:38;2.25;;;1.13;;
45842;SDS011;31563;51.744;8.252;2023-06-14T12:44:08;2.45;;;1.25;;
45842;SDS011;31563;51.744;8.252;2023-06-14T12:46:37;1.95;;;1.45;;
45842;SDS011;31563;51.744;8.252;2023-06-14T12:49:08;3.42;;;1.58;;
45842;SDS011;31563;51.744;8.252;2023-06-14T12:51:37;1.67;;;1.48;;
45842;SDS011;31563;51.744;8.252;2023-06-14T12:54:05;2.53;;;1.17;;
45842;SDS011;31563;51.744;8.252;2023-06-14T12:56:34;3.08;;;1.20;;
45842;SDS011;31563;51.744;8.252;2023-06-14T12:59:03;1.23;;;0.90;;
45842;SDS011;31563;51.744;8.252;2023-06-14T13:01:32;1.98;;;1.05;;
45842;SDS011;31563;51.744;8.252;2023-06-14T13:06:57;1.20;;;1.10;;
45842;SDS011;31563;51.744;8.252;2023-06-14T13:09:25;2.25;;;1.23;;
45842;SDS011;31563;51.744;8.252;2023-06-14T13:11:54;2.20;;;1.20;;
45842;SDS011;31563;51.744;8.252;2023-06-14T13:14:22;2.63;;;1.38;;
45842;SDS011;31563;51.744;8.252;2023-06-14T13:16:51;2.17;;;1.05;;
45842;SDS011;31563;51.744;8.252;2023-06-14T13:19:20;1.70;;;1.03;;
45842;SDS011;31563;51.744;8.252;2023-06-14T13:21:49;1.75;;;1.15;;
45842;SDS011;31563;51.744;8.252;2023-06-14T13:24:18;2.63;;;1.00;;
45842;SDS011;31563;51.744;8.252;2023-06-14T13:26:46;2.38;;;1.30;;
45842;SDS011;31563;51.744;8.252;2023-06-14T13:29:14;4.10;;;1.17;;
45842;SDS011;31563;51.744;8.252;2023-06-14T13:31:42;2.10;;;1.23;;
45842;SDS011;31563;51.744;8.252;2023-06-14T13:34:11;1.52;;;1.02;;
45842;SDS011;31563;51.744;8.252;2023-06-14T13:36:40;3.40;;;1.38;;
45842;SDS011;31563;51.744;8.252;2023-06-14T13:39:09;1.88;;;1.20;;
45842;SDS011;31563;51.744;8.252;2023-06-14T13:41:38;3.95;;;1.17;;
45842;SDS011;31563;51.744;8.252;2023-06-14T13:44:06;2.05;;;1.00;;
45842;SDS011;31563;51.744;8.252;2023-06-14T13:46:35;3.40;;;1.30;;
45842;SDS011;31563;51.744;8.252;2023-06-14T13:49:03;2.80;;;1.42;;
45842;SDS011;31563;51.744;8.252;2023-06-14T13:51:31;6.90;;;1.67;;
45842;SDS011;31563;51.744;8.252;2023-06-14T13:54:01;2.63;;;1.52;;
45842;SDS011;31563;51.744;8.252;2023-06-14T13:56:30;3.45;;;1.55;;
45842;SDS011;31563;51.744;8.252;2023-06-14T13:58:59;3.10;;;1.40;;
45842;SDS011;31563;51.744;8.252;2023-06-14T14:01:27;2.80;;;1.50;;
45842;SDS011;31563;51.744;8.252;2023-06-14T14:03:56;1.50;;;1.30;;
45842;SDS011;31563;51.744;8.252;2023-06-14T14:06:25;2.38;;;1.23;;
45842;SDS011;31563;51.744;8.252;2023-06-14T14:08:53;1.80;;;1.30;;
45842;SDS011;31563;51.744;8.252;2023-06-14T14:11:21;3.20;;;1.30;;
45842;SDS011;31563;51.744;8.252;2023-06-14T14:13:51;2.20;;;1.08;;
45842;SDS011;31563;51.744;8.252;2023-06-14T14:16:19;2.05;;;1.00;;
45842;SDS011;31563;51.744;8.252;2023-06-14T14:18:47;1.45;;;1.02;;
45842;SDS011;31563;51.744;8.252;2023-06-14T14:21:15;2.70;;;0.93;;
45842;SDS011;31563;51.744;8.252;2023-06-14T14:23:44;1.70;;;1.17;;
45842;SDS011;31563;51.744;8.252;2023-06-14T14:26:12;1.37;;;1.20;;
45842;SDS011;31563;51.744;8.252;2023-06-14T14:28:40;3.67;;;1.40;;
45842;SDS011;31563;51.744;8.252;2023-06-14T14:31:10;1.00;;;0.90;;
45842;SDS011;31563;51.744;8.252;2023-06-14T14:33:38;1.92;;;1.20;;
45842;SDS011;31563;51.744;8.252;2023-06-14T14:36:07;1.50;;;1.05;;
45842;SDS011;31563;51.744;8.252;2023-06-14T14:38:35;1.95;;;1.10;;
45842;SDS011;31563;51.744;8.252;2023-06-14T14:41:03;1.27;;;1.10;;
45842;SDS011;31563;51.744;8.252;2023-06-14T14:43:32;1.95;;;1.50;;
45842;SDS011;31563;51.744;8.252;2023-06-14T14:46:00;1.27;;;1.00;;
45842;SDS011;31563;51.744;8.252;2023-06-14T14:48:30;2.20;;;1.23;;
45842;SDS011;31563;51.744;8.252;2023-06-14T14:50:58;1.35;;;0.95;;
45842;SDS011;31563;51.744;8.252;2023-06-14T14:53:26;1.20;;;1.10;;
45842;SDS011;31563;51.744;8.252;2023-06-14T14:55:55;1.63;;;0.98;;
45842;SDS011;31563;51.744;8.252;2023-06-14T14:58:23;1.52;;;1.05;;
45842;SDS011;31563;51.744;8.252;2023-06-14T15:00:51;3.15;;;1.40;;
45842;SDS011;31563;51.744;8.252;2023-06-14T15:03:20;5.90;;;1.20;;
45842;SDS011;31563;51.744;8.252;2023-06-14T15:05:49;6.83;;;1.70;;
45842;SDS011;31563;51.744;8.252;2023-06-14T15:08:18;2.70;;;1.33;;
45842;SDS011;31563;51.744;8.252;2023-06-14T15:10:47;4.67;;;1.50;;
45842;SDS011;31563;51.744;8.252;2023-06-14T15:13:15;5.25;;;1.20;;
45842;SDS011;31563;51.744;8.252;2023-06-14T15:15:43;2.13;;;1.20;;
45842;SDS011;31563;51.744;8.252;2023-06-14T15:18:12;2.78;;;1.25;;
45842;SDS011;31563;51.744;8.252;2023-06-14T15:20:41;3.03;;;1.52;;
45842;SDS011;31563;51.744;8.252;2023-06-14T15:23:11;3.78;;;1.48;;
45842;SDS011;31563;51.744;8.252;2023-06-14T15:25:46;2.45;;;1.38;;
45842;SDS011;31563;51.744;8.252;2023-06-14T15:28:14;1.10;;;0.98;;
45842;SDS011;31563;51.744;8.252;2023-06-14T15:30:42;2.07;;;1.17;;
45842;SDS011;31563;51.744;8.252;2023-06-14T15:33:11;1.52;;;1.10;;